Time;durP1;ratioP1;P1;durP2;ratioP2;P2;SDS_P1;SDS_P2;PMS_P1;PMS_P2;Temp;Humidity;BMP_temperature;BMP_pressure;BME280_temperature;BME280_humidity;BME280_pressure;Samples;Min_cycle;Max_cycle;Signal;HPM_P1;HPM_P2
2023/02/28 00:00:09;;;;;;;2.70;1.00;;;;;;;2.71;92.50;102974.91;5124566;28;20045;-68
2023/02/28 00:02:36;;;;;;;2.70;1.00;;;;;;;2.54;92.10;102960.00;5124573;28;20023;-68
2023/02/28 00:05:03;;;;;;;1.63;0.80;;;;;;;2.73;92.12;102981.00;5124101;28;20035;-68
2023/02/28 00:07:30;;;;;;;2.15;0.90;;;;;;;2.75;91.75;102982.63;5128025;28;20087;-68
2023/02/28 00:09:55;;;;;;;2.17;0.90;;;;;;;2.80;91.57;102983.19;5132367;28;20350;-68
2023/02/28 00:12:20;;;;;;;2.42;0.98;;;;;;;2.78;91.43;102993.06;5131453;28;20035;-68
2023/02/28 00:14:46;;;;;;;2.33;0.80;;;;;;;2.78;91.88;102979.78;5134373;28;20569;-68
2023/02/28 00:17:11;;;;;;;1.55;0.90;;;;;;;2.76;91.79;102980.81;5111133;28;20023;-67
2023/02/28 00:19:37;;;;;;;3.15;1.27;;;;;;;2.59;91.42;102949.97;5125935;28;20040;-68
2023/02/28 00:22:02;;;;;;;5.53;1.60;;;;;;;2.58;91.75;102954.44;5131961;28;20023;-68
2023/02/28 00:24:28;;;;;;;4.30;1.70;;;;;;;2.68;91.01;102970.66;5107347;28;20112;-68
2023/02/28 00:26:53;;;;;;;6.22;2.53;;;;;;;2.62;91.44;102972.84;5090113;28;20045;-68
2023/02/28 00:29:18;;;;;;;10.10;3.10;;;;;;;2.42;91.38;102948.34;5123837;28;20130;-69
2023/02/28 00:31:44;;;;;;;6.47;2.90;;;;;;;2.53;91.12;102976.91;5123155;28;20032;-68
2023/02/28 00:34:09;;;;;;;4.53;1.90;;;;;;;2.51;90.77;102973.47;5122685;28;20062;-68
2023/02/28 00:36:35;;;;;;;2.40;1.20;;;;;;;2.34;91.62;102953.25;5121270;28;20055;-68
2023/02/28 00:39:00;;;;;;;6.03;1.10;;;;;;;2.45;90.72;102969.41;5120361;28;20085;-68
2023/02/28 00:41:25;;;;;;;3.55;1.13;;;;;;;2.46;91.40;102965.81;5098831;28;20044;-68
2023/02/28 00:43:51;;;;;;;3.22;1.05;;;;;;;2.45;90.89;102960.56;5117977;28;20040;-68
2023/02/28 00:46:17;;;;;;;4.30;1.20;;;;;;;2.45;90.84;102964.09;5104705;28;20040;-68
2023/02/28 00:48:43;;;;;;;8.32;1.58;;;;;;;2.43;90.97;102952.69;5104254;28;20040;-68
2023/02/28 00:51:08;;;;;;;3.70;1.13;;;;;;;2.34;90.71;102945.28;5120992;28;20107;-68
2023/02/28 00:53:34;;;;;;;4.32;1.10;;;;;;;2.44;90.78;102964.19;5104121;28;20031;-69
2023/02/28 00:55:59;;;;;;;3.00;0.85;;;;;;;2.46;90.61;102954.31;5120538;28;20462;-68
2023/02/28 00:58:25;;;;;;;3.95;0.90;;;;;;;2.45;90.91;102956.13;5121471;28;20126;-68
2023/02/28 01:00:52;;;;;;;2.88;1.00;;;;;;;2.51;90.80;102953.06;5102422;28;20403;-68
2023/02/28 01:03:19;;;;;;;2.28;0.80;;;;;;;2.52;91.23;102953.94;5121676;28;20028;-68
2023/02/28 01:05:45;;;;;;;2.75;0.90;;;;;;;2.50;91.18;102962.00;5118993;28;20031;-68
2023/02/28 01:08:10;;;;;;;1.70;0.70;;;;;;;2.46;90.59;102955.16;5123241;28;20135;-68
2023/02/28 01:10:36;;;;;;;5.20;0.98;;;;;;;2.42;91.12;102963.41;5125051;28;20035;-68
2023/02/28 01:13:02;;;;;;;2.67;1.20;;;;;;;2.43;91.42;102960.66;5105537;28;20040;-68
2023/02/28 01:15:28;;;;;;;2.55;0.90;;;;;;;2.44;91.52;102950.88;5122051;27;20078;-68
2023/02/28 01:17:54;;;;;;;1.80;0.80;;;;;;;2.49;91.61;102956.78;5121356;28;20023;-67
2023/02/28 01:20:19;;;;;;;5.13;1.50;;;;;;;2.50;91.36;102955.84;5121524;28;20066;-68
2023/02/28 01:22:45;;;;;;;2.33;0.82;;;;;;;2.50;91.36;102950.53;5122785;28;20046;-68
2023/02/28 01:25:10;;;;;;;3.80;0.80;;;;;;;2.51;91.01;102947.75;5105756;28;20027;-68
2023/02/28 01:27:35;;;;;;;2.47;0.52;;;;;;;2.31;90.65;102945.47;5122131;28;20023;-68
2023/02/28 01:30:02;;;;;;;1.58;0.60;;;;;;;2.28;91.21;102938.53;5122406;28;20390;-69
2023/02/28 01:32:28;;;;;;;2.55;0.70;;;;;;;2.23;91.18;102935.31;5121697;28;20034;-68
2023/02/28 01:34:53;;;;;;;3.15;1.00;;;;;;;2.03;90.94;102914.41;5117620;28;20031;-68
2023/02/28 01:37:19;;;;;;;5.50;0.85;;;;;;;2.00;90.97;102928.72;5115379;28;20034;-68
2023/02/28 01:39:44;;;;;;;4.60;0.95;;;;;;;2.02;91.24;102937.47;5086708;28;20113;-68
2023/02/28 01:42:13;;;;;;;5.60;1.10;;;;;;;2.00;91.54;102925.22;5121332;28;20022;-68
2023/02/28 01:44:58;;;;;;;2.40;1.10;;;;;;;2.06;91.23;102933.66;5121208;28;20024;-68
2023/02/28 01:47:28;;;;;;;3.13;1.38;;;;;;;2.06;91.16;102932.81;5117964;28;20455;-68
2023/02/28 01:49:54;;;;;;;3.70;1.80;;;;;;;2.02;90.91;102924.19;5120776;28;20035;-67
2023/02/28 01:52:21;;;;;;;2.90;1.30;;;;;;;1.98;91.20;102925.28;5119873;28;20037;-68
2023/02/28 01:54:51;;;;;;;3.95;1.40;;;;;;;2.06;91.11;102919.53;5121387;28;20035;-68
2023/02/28 01:57:23;;;;;;;5.88;1.08;;;;;;;2.12;91.30;102916.53;5120621;28;20452;-69
2023/02/28 01:59:59;;;;;;;3.80;1.50;;;;;;;2.07;91.27;102910.63;5121534;28;20024;-68
2023/02/28 02:02:25;;;;;;;4.38;1.20;;;;;;;2.01;90.38;102925.09;5121674;28;20053;-68
2023/02/28 02:05:02;;;;;;;3.92;1.20;;;;;;;1.98;91.08;102935.06;5118399;28;20168;-68
2023/02/28 02:07:32;;;;;;;3.25;1.33;;;;;;;1.98;91.20;102924.44;5112569;28;20122;-68
2023/02/28 02:10:30;;;;;;;4.40;1.50;;;;;;;1.97;91.31;102922.72;5118094;28;20110;-67
2023/02/28 02:13:08;;;;;;;3.45;1.50;;;;;;;2.04;91.63;102922.25;5115790;28;20453;-68
2023/02/28 02:15:45;;;;;;;4.68;1.65;;;;;;;2.05;91.17;102918.69;5119422;28;20027;-68
2023/02/28 02:18:25;;;;;;;3.63;1.23;;;;;;;2.05;90.98;102920.47;5118361;28;20031;-68
2023/02/28 02:21:00;;;;;;;4.05;1.15;;;;;;;2.01;91.11;102918.94;5135572;27;20043;-68
2023/02/28 02:23:28;;;;;;;;;;;;;;;2.01;91.75;102911.81;5120700;28;20494;-68
2023/02/28 02:26:03;;;;;;;4.18;1.60;;;;;;;1.97;90.86;102912.09;5119676;28;19977;-68
2023/02/28 02:28:41;;;;;;;5.13;1.83;;;;;;;1.87;90.61;102915.31;5118781;28;20444;-68
2023/02/28 02:31:44;;;;;;;3.90;1.42;;;;;;;1.78;91.48;102910.53;5119372;28;20039;-69
2023/02/28 02:34:20;;;;;;;4.53;1.20;;;;;;;1.79;91.25;102906.09;5119347;28;20392;-69
2023/02/28 02:36:52;;;;;;;4.90;1.33;;;;;;;1.79;91.36;102909.59;5121012;28;20039;-69
2023/02/28 02:39:59;;;;;;;2.45;1.02;;;;;;;1.79;91.22;102893.69;5120333;28;20067;-67
2023/02/28 02:42:36;;;;;;;2.03;1.20;;;;;;;1.82;91.18;102890.84;5125428;27;20058;-68
2023/02/28 02:45:12;;;;;;;5.05;1.30;;;;;;;1.83;91.24;102886.38;5119724;28;20086;-68
2023/02/28 02:47:39;;;;;;;3.55;1.40;;;;;;;1.83;91.20;102881.94;5118526;28;20023;-68
2023/02/28 02:50:13;;;;;;;4.57;2.00;;;;;;;1.80;91.00;102884.75;5096161;28;20558;-67
2023/02/28 02:52:48;;;;;;;3.10;1.10;;;;;;;1.73;90.80;102894.03;5118473;28;20036;-68
2023/02/28 02:55:14;;;;;;;4.68;1.17;;;;;;;1.58;91.06;102886.97;5119972;28;20031;-68
2023/02/28 02:57:51;;;;;;;2.05;1.10;;;;;;;1.53;91.16;102873.13;5120311;28;20024;-68
2023/02/28 03:00:23;;;;;;;3.65;1.20;;;;;;;1.53;91.26;102870.47;5120213;28;20030;-68
2023/02/28 03:02:52;;;;;;;4.32;1.30;;;;;;;1.65;91.11;102896.28;5118631;28;20080;-67
2023/02/28 03:05:27;;;;;;;4.03;1.98;;;;;;;1.49;90.94;102868.91;5117388;28;20541;-68
2023/02/28 03:07:52;;;;;;;4.43;1.63;;;;;;;1.53;91.22;102899.66;5118708;28;20023;-69
2023/02/28 03:10:32;;;;;;;5.78;1.17;;;;;;;1.58;91.30;102897.56;5117350;28;20024;-67
2023/02/28 03:13:18;;;;;;;3.35;1.20;;;;;;;1.63;91.32;102908.78;5116864;28;20088;-68
2023/02/28 03:16:04;;;;;;;5.78;1.50;;;;;;;1.67;91.61;102901.50;5116842;28;20075;-68
2023/02/28 03:18:54;;;;;;;3.25;1.73;;;;;;;1.66;91.42;102895.34;5116112;28;20436;-68
2023/02/28 03:21:38;;;;;;;2.15;1.15;;;;;;;1.67;91.24;102912.97;5118052;28;20359;-68
2023/02/28 03:24:10;;;;;;;2.28;1.00;;;;;;;1.70;91.64;102907.47;5116059;28;20114;-68
2023/02/28 03:26:41;;;;;;;2.60;0.80;;;;;;;1.75;91.40;102909.84;5116661;28;20066;-67
2023/02/28 03:29:17;;;;;;;3.88;1.23;;;;;;;1.77;91.19;102907.97;5115038;28;20024;-67
2023/02/28 03:32:03;;;;;;;4.20;1.35;;;;;;;1.78;91.51;102899.06;5110934;28;20032;-68
2023/02/28 03:34:40;;;;;;;3.90;1.48;;;;;;;1.80;91.43;102898.03;5115379;28;20027;-68
2023/02/28 03:37:11;;;;;;;2.22;1.20;;;;;;;1.72;91.13;102896.75;5119056;28;20027;-68
2023/02/28 03:39:45;;;;;;;2.60;1.40;;;;;;;1.63;91.40;102900.81;5117609;28;20015;-69
2023/02/28 03:42:25;;;;;;;3.87;1.70;;;;;;;1.52;91.29;102901.44;5117780;28;20016;-68
2023/02/28 03:44:57;;;;;;;2.90;1.52;;;;;;;1.40;91.50;102902.16;5118596;28;20035;-68
2023/02/28 03:47:38;;;;;;;4.25;1.63;;;;;;;1.25;91.34;102880.00;5118652;28;20027;-68
2023/02/28 03:50:10;;;;;;;4.95;1.40;;;;;;;1.42;91.58;102892.28;5118466;28;20055;-68
2023/02/28 03:52:44;;;;;;;3.22;1.00;;;;;;;1.50;91.41;102889.22;5117967;28;20032;-67
2023/02/28 03:55:12;;;;;;;;;;;;;;;1.55;91.74;102897.75;5114911;28;20024;-68
2023/02/28 03:57:54;;;;;;;1.73;0.95;;;;;;;1.53;91.58;102897.84;5115016;28;19908;-67
2023/02/28 04:00:35;;;;;;;2.15;0.95;;;;;;;1.48;91.22;102897.25;5117897;28;20061;-68
2023/02/28 04:03:01;;;;;;;3.78;1.30;;;;;;;1.37;90.79;102900.53;5117972;28;20020;-68
2023/02/28 04:05:27;;;;;;;3.63;1.27;;;;;;;1.27;91.18;102898.50;5117143;28;20081;-67
2023/02/28 04:07:54;;;;;;;3.45;1.10;;;;;;;1.24;91.44;102894.22;5099929;28;20123;-68
2023/02/28 04:10:19;;;;;;;4.13;0.98;;;;;;;1.18;90.77;102889.25;5116840;28;20485;-68
2023/02/28 04:12:45;;;;;;;2.72;1.33;;;;;;;1.23;91.30;102889.00;5118141;28;20080;-67
2023/02/28 04:15:11;;;;;;;2.25;1.48;;;;;;;1.22;91.13;102895.22;5120257;28;20028;-68
2023/02/28 04:17:37;;;;;;;4.70;0.90;;;;;;;1.18;90.85;102894.56;5121583;28;20031;-68
2023/02/28 04:20:08;;;;;;;5.10;1.33;;;;;;;1.15;91.04;102897.38;5122012;28;20054;-68
2023/02/28 04:22:34;;;;;;;2.83;1.30;;;;;;;1.17;91.13;102895.50;5120572;28;20051;-68
2023/02/28 04:24:59;;;;;;;3.60;1.20;;;;;;;1.23;91.09;102889.00;5103114;28;20095;-67
2023/02/28 04:27:25;;;;;;;2.72;0.90;;;;;;;1.25;91.14;102889.75;5121290;28;20421;-68
2023/02/28 04:29:50;;;;;;;2.33;0.80;;;;;;;1.22;91.16;102885.47;5136737;27;20051;-68
2023/02/28 04:32:15;;;;;;;3.88;1.30;;;;;;;1.21;90.59;102886.44;5120471;28;20031;-68
2023/02/28 04:34:41;;;;;;;3.42;1.10;;;;;;;1.20;90.68;102883.88;5122101;28;20040;-68
2023/02/28 04:37:07;;;;;;;2.58;1.05;;;;;;;0.97;91.23;102853.34;5120275;28;20063;-68
2023/02/28 04:39:36;;;;;;;2.88;1.20;;;;;;;1.18;91.21;102889.25;5121322;28;20080;-68
2023/02/28 04:42:02;;;;;;;1.70;1.02;;;;;;;1.20;91.09;102892.69;5120631;28;20045;-68
2023/02/28 04:44:27;;;;;;;1.90;1.08;;;;;;;1.17;91.02;102888.41;5102834;28;20032;-68
2023/02/28 04:46:52;;;;;;;2.35;1.50;;;;;;;1.19;91.01;102896.25;5125622;28;20042;-68
2023/02/28 04:49:18;;;;;;;3.50;1.05;;;;;;;1.05;91.11;102877.63;5129154;28;20501;-67
2023/02/28 04:51:43;;;;;;;2.85;1.00;;;;;;;1.11;91.03;102883.44;5101294;28;20046;-68
2023/02/28 04:54:09;;;;;;;2.22;1.13;;;;;;;1.14;91.04;102891.22;5117352;28;20028;-68
2023/02/28 04:56:35;;;;;;;6.65;1.05;;;;;;;1.07;90.88;102863.34;5118546;28;20036;-67
2023/02/28 04:59:00;;;;;;;1.70;0.98;;;;;;;1.18;90.87;102881.28;5101025;28;20542;-67
2023/02/28 05:01:32;;;;;;;1.92;0.80;;;;;;;1.07;91.45;102852.75;5136014;27;20470;-68
2023/02/28 05:03:59;;;;;;;4.30;0.90;;;;;;;1.31;90.91;102879.66;5120083;27;20394;-67
2023/02/28 05:06:27;;;;;;;3.58;0.90;;;;;;;1.25;90.74;102856.13;5120831;28;20023;-67
2023/02/28 05:08:53;;;;;;;1.52;0.90;;;;;;;1.41;90.56;102882.63;5124779;28;20057;-67
2023/02/28 05:11:25;;;;;;;1.85;1.10;;;;;;;1.32;90.59;102884.00;5127405;28;20073;-68
2023/02/28 05:13:53;;;;;;;15.60;3.88;;;;;;;1.39;91.01;102889.81;5119896;28;20034;-68
2023/02/28 05:16:19;;;;;;;18.75;3.33;;;;;;;1.44;90.86;102893.06;5116040;28;20047;-68
2023/02/28 05:18:45;;;;;;;183.95;4.60;;;;;;;1.39;91.30;102890.69;5117471;28;20051;-67
2023/02/28 05:21:30;;;;;;;139.15;5.20;;;;;;;1.38;91.21;102888.97;5118000;28;20109;-68
2023/02/28 05:23:59;;;;;;;249.48;6.05;;;;;;;1.48;91.58;102885.78;5116608;28;20459;-66
2023/02/28 05:26:26;;;;;;;80.40;4.45;;;;;;;1.56;91.66;102887.06;5118514;28;20031;-67
2023/02/28 05:28:52;;;;;;;87.15;5.45;;;;;;;1.54;92.02;102872.16;5125677;28;20031;-67
2023/02/28 05:31:17;;;;;;;65.18;7.15;;;;;;;1.59;91.90;102878.03;5125722;28;20592;-67
2023/02/28 05:33:42;;;;;;;116.43;5.32;;;;;;;1.65;91.64;102873.22;5126561;28;20031;-67
2023/02/28 05:36:08;;;;;;;48.45;3.30;;;;;;;1.65;91.95;102867.94;5127742;28;20028;-68
2023/02/28 05:38:34;;;;;;;46.17;5.32;;;;;;;1.67;91.61;102864.34;5099685;28;20059;-67
2023/02/28 05:40:59;;;;;;;48.05;6.00;;;;;;;1.66;92.48;102871.47;5117101;28;20130;-67
2023/02/28 05:43:25;;;;;;;49.97;5.40;;;;;;;1.62;92.08;102856.63;5117701;28;20046;-66
2023/02/28 05:45:52;;;;;;;109.85;6.28;;;;;;;1.56;92.12;102846.41;5117745;28;20023;-66
2023/02/28 05:48:17;;;;;;;63.60;5.57;;;;;;;1.69;92.33;102863.31;5117359;28;20031;-66
2023/02/28 05:50:45;;;;;;;51.63;6.53;;;;;;;1.61;92.30;102854.94;5119219;28;20115;-67
2023/02/28 05:53:11;;;;;;;55.88;6.30;;;;;;;1.69;92.30;102860.66;5119052;28;20024;-66
2023/02/28 05:55:37;;;;;;;95.90;8.23;;;;;;;1.61;92.07;102861.09;5118441;28;20466;-66
2023/02/28 05:58:03;;;;;;;44.00;6.07;;;;;;;1.59;92.49;102854.16;5117629;28;20047;-66
2023/02/28 06:00:28;;;;;;;23.20;6.15;;;;;;;1.50;92.48;102833.50;5100653;28;20032;-66
2023/02/28 06:02:56;;;;;;;58.80;7.75;;;;;;;1.69;92.14;102871.28;5106326;28;20338;-66
2023/02/28 06:05:22;;;;;;;40.17;7.10;;;;;;;1.64;92.14;102868.88;5098590;28;20036;-66
2023/02/28 06:07:47;;;;;;;43.30;5.63;;;;;;;1.73;92.33;102864.84;5096348;28;20451;-66
2023/02/28 06:10:13;;;;;;;36.60;4.78;;;;;;;1.81;92.39;102867.03;5096742;28;20047;-66
2023/02/28 06:12:41;;;;;;;128.35;9.45;;;;;;;1.82;91.79;102860.75;5097130;28;20025;-66
2023/02/28 06:15:11;;;;;;;57.85;8.70;;;;;;;1.78;92.03;102868.06;5098287;28;20028;-66
2023/02/28 06:17:36;;;;;;;110.25;7.72;;;;;;;1.75;92.12;102860.28;5095964;28;20047;-66
2023/02/28 06:20:02;;;;;;;49.33;5.78;;;;;;;1.85;92.27;102857.94;5098088;28;20467;-66
2023/02/28 06:22:28;;;;;;;52.30;4.82;;;;;;;1.94;92.67;102851.22;5097615;28;20091;-66
2023/02/28 06:24:54;;;;;;;91.75;9.00;;;;;;;2.03;92.50;102866.59;5095264;28;20073;-66
2023/02/28 06:27:20;;;;;;;60.88;6.85;;;;;;;2.08;92.54;102870.69;5096686;28;20028;-66
2023/02/28 06:29:45;;;;;;;125.88;8.23;;;;;;;2.04;91.98;102863.00;5097511;28;20024;-67
2023/02/28 06:32:11;;;;;;;68.13;9.85;;;;;;;1.64;92.17;102807.00;5095496;28;20032;-66
2023/02/28 06:34:36;;;;;;;46.58;9.52;;;;;;;2.08;92.17;102885.75;5094145;28;20482;-66
2023/02/28 06:37:02;;;;;;;50.22;9.30;;;;;;;2.09;92.52;102892.81;5094338;28;20039;-66
2023/02/28 06:39:29;;;;;;;102.00;7.40;;;;;;;2.16;92.73;102894.13;5095117;28;20031;-67
2023/02/28 06:41:54;;;;;;;165.18;12.32;;;;;;;2.26;92.86;102899.75;5098268;28;20114;-66
2023/02/28 06:44:20;;;;;;;52.83;10.15;;;;;;;2.32;92.81;102907.34;5100084;28;20116;-66
2023/02/28 06:46:46;;;;;;;117.60;12.52;;;;;;;2.37;92.44;102902.59;5085979;28;20089;-66
2023/02/28 06:49:12;;;;;;;83.95;11.98;;;;;;;2.37;92.29;102907.06;5099172;28;20029;-65
2023/02/28 06:51:39;;;;;;;93.50;12.15;;;;;;;2.25;92.31;102888.28;5100649;28;20051;-66
2023/02/28 06:54:08;;;;;;;151.35;11.85;;;;;;;2.37;92.17;102915.03;5100149;28;20402;-66
2023/02/28 06:56:34;;;;;;;122.55;10.10;;;;;;;2.39;92.77;102910.47;5114336;28;20151;-67
2023/02/28 06:58:59;;;;;;;337.80;16.20;;;;;;;2.48;92.42;102923.19;5098190;28;20108;-66
2023/02/28 07:01:25;;;;;;;77.25;10.48;;;;;;;2.34;92.56;102895.66;5081805;28;20028;-66
2023/02/28 07:03:52;;;;;;;121.78;9.45;;;;;;;2.62;93.04;102931.19;5100704;28;20432;-66
2023/02/28 07:06:22;;;;;;;64.55;8.63;;;;;;;2.70;92.32;102920.06;5098174;28;20135;-64
2023/02/28 07:08:49;;;;;;;52.88;8.63;;;;;;;2.80;92.32;102918.53;5079532;28;20034;-65
2023/02/28 07:11:15;;;;;;;93.47;11.30;;;;;;;2.95;92.29;102932.69;5095630;28;20039;-66
2023/02/28 07:13:40;;;;;;;80.07;11.55;;;;;;;2.95;92.72;102935.34;5098869;28;20036;-66
2023/02/28 07:16:10;;;;;;;151.07;12.85;;;;;;;3.04;92.26;102942.69;5080856;28;20563;-65
2023/02/28 07:18:36;;;;;;;60.60;11.48;;;;;;;3.06;92.91;102944.31;5098175;28;20039;-66
2023/02/28 07:21:03;;;;;;;94.30;13.40;;;;;;;3.18;92.32;102948.03;5092627;28;20032;-65
2023/02/28 07:23:29;;;;;;;52.50;11.68;;;;;;;3.00;92.57;102925.25;5078887;28;20036;-67
2023/02/28 07:25:55;;;;;;;45.63;12.27;;;;;;;3.14;92.78;102950.97;5095201;28;20027;-66
2023/02/28 07:28:20;;;;;;;61.45;14.73;;;;;;;3.18;92.34;102945.38;5096233;28;20031;-65
2023/02/28 07:30:46;;;;;;;52.92;13.07;;;;;;;3.21;92.62;102942.50;5080714;28;20058;-66
2023/02/28 07:33:11;;;;;;;57.28;13.43;;;;;;;3.35;92.87;102943.41;5099374;28;20096;-64
2023/02/28 07:35:37;;;;;;;68.03;14.07;;;;;;;3.52;92.20;102949.34;5099347;28;20028;-64
2023/02/28 07:38:02;;;;;;;81.60;17.98;;;;;;;3.60;92.29;102948.81;5097057;28;20129;-64
2023/02/28 07:40:28;;;;;;;61.55;16.85;;;;;;;3.67;92.66;102942.13;5097307;28;20379;-64
2023/02/28 07:42:53;;;;;;;139.00;25.98;;;;;;;3.73;93.14;102952.38;5091558;28;20035;-65
2023/02/28 07:45:19;;;;;;;107.75;22.75;;;;;;;3.73;92.67;102920.44;5093099;28;20020;-64
2023/02/28 07:47:45;;;;;;;230.68;28.92;;;;;;;4.05;93.17;102944.06;5097412;28;20074;-64
2023/02/28 07:50:13;;;;;;;51.90;14.18;;;;;;;4.11;92.98;102932.16;5100486;28;20217;-64
2023/02/28 07:52:39;;;;;;;60.42;13.18;;;;;;;4.23;93.51;102949.94;5097704;28;20027;-64
2023/02/28 07:55:06;;;;;;;36.60;11.65;;;;;;;4.32;93.66;102945.81;5102396;28;20028;-64
2023/02/28 07:57:31;;;;;;;232.50;22.65;;;;;;;4.36;92.89;102944.63;5101318;28;20032;-65
2023/02/28 07:59:57;;;;;;;146.75;16.63;;;;;;;4.30;93.52;102918.38;5102195;28;20028;-65
2023/02/28 08:02:22;;;;;;;171.48;28.95;;;;;;;4.37;92.87;102947.19;5103249;28;20111;-64
2023/02/28 08:04:49;;;;;;;103.18;13.88;;;;;;;4.30;93.42;102937.03;5085701;28;20078;-65
2023/02/28 08:07:15;;;;;;;320.83;20.75;;;;;;;4.40;93.06;102956.78;5101546;28;20113;-64
2023/02/28 08:09:41;;;;;;;293.40;19.92;;;;;;;4.42;93.72;102962.88;5100622;28;20036;-65
2023/02/28 08:12:07;;;;;;;110.25;14.25;;;;;;;4.44;93.46;102964.47;5083027;28;20025;-64
2023/02/28 08:14:33;;;;;;;231.48;19.40;;;;;;;4.56;93.58;102956.56;5101469;28;20028;-64
2023/02/28 08:16:58;;;;;;;116.30;13.70;;;;;;;4.62;93.64;102941.00;5099742;28;20024;-65
2023/02/28 08:19:24;;;;;;;92.28;14.32;;;;;;;4.62;93.73;102926.81;5100080;28;20062;-64
2023/02/28 08:21:49;;;;;;;71.75;14.38;;;;;;;4.90;93.11;102955.03;5082296;28;20034;-64
2023/02/28 08:24:15;;;;;;;151.70;17.25;;;;;;;4.98;93.27;102950.03;5100146;28;20032;-64
2023/02/28 08:26:41;;;;;;;136.85;16.67;;;;;;;5.05;93.32;102945.94;5100524;28;20070;-65
2023/02/28 08:29:07;;;;;;;78.47;13.07;;;;;;;5.17;93.76;102954.91;5100014;28;20039;-65
2023/02/28 08:31:32;;;;;;;66.30;10.50;;;;;;;5.29;93.51;102947.81;5082391;28;20055;-65
2023/02/28 08:33:59;;;;;;;99.28;11.88;;;;;;;5.41;93.50;102953.09;5099107;28;20107;-65
2023/02/28 08:36:26;;;;;;;96.15;12.65;;;;;;;5.40;93.41;102931.88;5100094;28;20062;-65
2023/02/28 08:38:51;;;;;;;60.35;11.77;;;;;;;5.52;93.23;102956.78;5098297;28;20462;-65
2023/02/28 08:41:17;;;;;;;204.20;18.50;;;;;;;5.63;93.13;102948.84;5099943;28;20024;-65
2023/02/28 08:43:43;;;;;;;120.43;15.85;;;;;;;5.76;93.28;102954.13;5099742;28;20039;-65
2023/02/28 08:46:13;;;;;;;132.35;18.40;;;;;;;5.78;93.07;102931.66;5099216;28;20036;-65
2023/02/28 08:48:39;;;;;;;43.55;11.43;;;;;;;5.98;93.39;102946.22;5100213;28;20031;-65
2023/02/28 08:51:21;;;;;;;85.78;15.60;;;;;;;6.02;93.65;102931.66;5086800;28;20036;-65
2023/02/28 08:53:49;;;;;;;70.53;14.60;;;;;;;6.17;93.50;102939.50;5113777;28;20020;-66
2023/02/28 08:56:16;;;;;;;31.83;10.38;;;;;;;6.35;93.33;102960.28;5111789;28;20028;-65
2023/02/28 08:58:43;;;;;;;36.22;11.15;;;;;;;6.42;93.14;102958.00;5110870;28;20095;-65
2023/02/28 09:01:18;;;;;;;44.40;12.23;;;;;;;6.47;93.58;102963.84;5102922;28;20024;-65
2023/02/28 09:03:45;;;;;;;29.83;10.20;;;;;;;6.51;93.54;102962.63;5095647;28;20043;-65
2023/02/28 09:06:12;;;;;;;32.58;10.13;;;;;;;6.52;93.36;102972.38;5098052;28;20351;-65
2023/02/28 09:08:37;;;;;;;65.97;10.30;;;;;;;6.55;93.32;102980.13;5099273;28;20073;-65
2023/02/28 09:11:03;;;;;;;33.20;8.05;;;;;;;6.60;93.57;102969.09;5097763;28;20494;-65
2023/02/28 09:13:29;;;;;;;44.15;8.93;;;;;;;6.65;93.46;102955.34;5096078;28;20493;-65
2023/02/28 09:15:57;;;;;;;31.90;8.98;;;;;;;6.81;93.73;102970.06;5097623;28;20024;-65
2023/02/28 09:18:23;;;;;;;23.80;8.05;;;;;;;6.87;93.96;102967.91;5099333;28;20024;-66
2023/02/28 09:20:48;;;;;;;33.65;8.18;;;;;;;6.93;93.61;102964.75;5099615;28;20117;-66
2023/02/28 09:23:14;;;;;;;23.17;6.80;;;;;;;6.99;93.41;102973.13;5097791;28;20195;-66
2023/02/28 09:25:51;;;;;;;12.18;5.80;;;;;;;7.09;93.83;102973.25;5099086;28;20034;-66
2023/02/28 09:28:17;;;;;;;8.65;5.15;;;;;;;7.15;93.52;102967.41;5100066;28;20023;-66
2023/02/28 09:30:45;;;;;;;19.60;7.50;;;;;;;7.27;93.61;102984.28;5098434;28;20043;-65
2023/02/28 09:33:10;;;;;;;12.40;5.55;;;;;;;7.27;93.57;102987.81;5099397;28;20128;-65
2023/02/28 09:35:37;;;;;;;17.17;6.88;;;;;;;7.36;93.84;102991.59;5099299;28;20059;-66
2023/02/28 09:38:03;;;;;;;14.07;6.30;;;;;;;7.38;93.89;102991.44;5097127;28;20032;-65
2023/02/28 09:40:30;;;;;;;14.68;6.75;;;;;;;7.29;93.34;102977.84;5099489;28;20509;-66
2023/02/28 09:42:57;;;;;;;15.50;6.55;;;;;;;7.34;93.76;102981.97;5098835;28;20055;-66
2023/02/28 09:45:36;;;;;;;17.15;7.18;;;;;;;7.41;94.30;102981.34;5096042;28;20035;-65
2023/02/28 09:48:16;;;;;;;21.00;6.60;;;;;;;7.40;93.95;102984.16;5094115;28;20024;-66
2023/02/28 09:50:47;;;;;;;21.02;7.18;;;;;;;7.35;94.05;102975.63;5096929;28;20020;-66
2023/02/28 09:53:34;;;;;;;19.77;7.30;;;;;;;7.44;94.20;102983.75;5096070;28;20027;-65
2023/02/28 09:56:08;;;;;;;11.00;6.03;;;;;;;7.46;94.33;102970.25;5096744;28;20073;-66
2023/02/28 09:58:45;;;;;;;16.10;5.47;;;;;;;7.51;94.30;102968.88;5097602;28;20040;-65
2023/02/28 10:01:39;;;;;;;30.10;6.45;;;;;;;7.53;94.11;102987.53;5098545;28;20032;-66
2023/02/28 10:04:16;;;;;;;15.32;5.07;;;;;;;7.55;93.81;102982.91;5106234;28;20404;-66
2023/02/28 10:06:48;;;;;;;11.75;5.18;;;;;;;7.60;93.98;102986.03;5099536;28;20093;-65
2023/02/28 10:09:20;;;;;;;11.13;4.85;;;;;;;7.55;93.79;102988.28;5098026;28;20109;-65
2023/02/28 10:11:46;;;;;;;6.30;4.15;;;;;;;7.60;94.18;102986.03;5098353;28;20112;-66
2023/02/28 10:14:28;;;;;;;16.67;4.07;;;;;;;7.67;93.94;102992.59;5098705;28;20047;-66
2023/02/28 10:16:56;;;;;;;20.00;4.70;;;;;;;7.50;93.33;102983.28;5099616;28;20039;-66
2023/02/28 10:19:33;;;;;;;15.95;4.45;;;;;;;7.59;94.23;103011.16;5098721;28;20051;-66
2023/02/28 10:22:06;;;;;;;9.93;4.20;;;;;;;7.79;94.20;103006.81;5099103;28;20040;-66
2023/02/28 10:24:45;;;;;;;65.05;4.57;;;;;;;7.76;94.40;102997.22;5097452;28;20031;-66
2023/02/28 10:27:27;;;;;;;31.58;4.32;;;;;;;7.27;95.35;102995.00;5098565;28;20054;-66
2023/02/28 10:29:59;;;;;;;56.60;5.20;;;;;;;6.61;97.52;103005.56;5097398;28;20028;-66
2023/02/28 10:32:32;;;;;;;25.48;4.95;;;;;;;6.61;98.45;103002.03;5099150;28;20120;-66
2023/02/28 10:35:09;;;;;;;16.60;4.00;;;;;;;7.04;97.35;103016.44;5098152;28;20027;-66
2023/02/28 10:37:40;;;;;;;5.85;4.13;;;;;;;7.26;96.55;103010.22;5096696;28;20454;-67
2023/02/28 10:40:17;;;;;;;8.95;5.68;;;;;;;7.49;95.40;103010.19;5096174;28;20035;-66
2023/02/28 10:42:54;;;;;;;10.68;6.00;;;;;;;7.72;95.32;103016.34;5096980;28;20032;-65
2023/02/28 10:45:20;;;;;;;11.00;6.63;;;;;;;7.83;95.01;103019.00;5097037;28;20023;-66
2023/02/28 10:48:02;;;;;;;15.38;7.50;;;;;;;7.93;94.93;103008.34;5098960;28;20039;-66
2023/02/28 10:50:54;;;;;;;17.13;9.00;;;;;;;7.95;94.73;103017.97;5097527;28;20032;-66
2023/02/28 10:53:25;;;;;;;16.42;9.27;;;;;;;8.11;94.54;103017.56;5096734;28;20024;-66
2023/02/28 10:56:02;;;;;;;16.85;8.95;;;;;;;8.18;95.21;103007.16;5098017;28;20023;-66
2023/02/28 10:58:42;;;;;;;14.05;8.30;;;;;;;8.23;94.44;102988.84;5095828;28;20135;-65
2023/02/28 11:01:14;;;;;;;13.45;8.13;;;;;;;8.36;93.84;103016.31;5095834;28;20038;-65
2023/02/28 11:03:39;;;;;;;16.67;8.63;;;;;;;8.48;94.18;103009.09;5097670;28;20112;-66
2023/02/28 11:06:08;;;;;;;13.63;7.43;;;;;;;8.44;94.64;103011.19;5096366;28;20043;-66
2023/02/28 11:08:42;;;;;;;10.77;6.55;;;;;;;8.37;94.05;103017.16;5098095;28;20114;-66
2023/02/28 11:11:08;;;;;;;12.13;6.35;;;;;;;8.24;94.25;102991.41;5097169;28;20028;-66
2023/02/28 11:13:37;;;;;;;10.32;5.60;;;;;;;8.46;94.91;103016.44;5079599;28;20543;-69
2023/02/28 11:16:09;;;;;;;8.57;5.45;;;;;;;8.61;94.91;103009.75;5096228;28;20034;-65
2023/02/28 11:18:51;;;;;;;7.82;5.43;;;;;;;8.68;94.18;103007.38;5096646;28;20107;-66
2023/02/28 11:21:29;;;;;;;7.72;5.22;;;;;;;8.70;93.96;103000.88;5097753;28;20363;-66
2023/02/28 11:24:06;;;;;;;6.93;4.72;;;;;;;8.69;94.34;102992.97;5096610;28;20024;-66
2023/02/28 11:26:38;;;;;;;5.63;3.97;;;;;;;8.70;93.88;102992.84;5097558;28;20047;-65
2023/02/28 11:29:29;;;;;;;7.30;4.20;;;;;;;8.80;94.14;102982.16;5097354;28;20031;-66
2023/02/28 11:32:13;;;;;;;6.90;4.60;;;;;;;8.90;93.50;102985.72;5098246;28;20036;-65
2023/02/28 11:34:40;;;;;;;6.20;4.35;;;;;;;9.05;92.71;102988.06;5097963;28;20028;-66
2023/02/28 11:37:11;;;;;;;32.70;4.13;;;;;;;8.69;93.01;102990.28;5097168;28;20032;-66